Time;durP1;ratioP1;P1;durP2;ratioP2;P2;SDS_P1;SDS_P2;PMS_P1;PMS_P2;Temp;Humidity;BMP_temperature;BMP_pressure;BME280_temperature;BME280_humidity;BME280_pressure;Samples;Min_cycle;Max_cycle;Signal;HPM_P1;HPM_P2
2022/07/31 00:00:32;;;;;;;2.53;2.33;;;22.40;99.90;;;;;;5051647;28;20029;-79
2022/07/31 00:02:58;;;;;;;5.82;2.78;;;22.40;99.90;;;;;;5043359;28;20035;-80
2022/07/31 00:05:24;;;;;;;5.05;2.42;;;22.40;99.90;;;;;;5031650;28;20412;-81
2022/07/31 00:07:51;;;;;;;6.07;2.53;;;22.40;99.90;;;;;;5038010;28;20025;-79
2022/07/31 00:10:17;;;;;;;4.03;2.28;;;22.40;99.90;;;;;;5051344;28;20127;-80
2022/07/31 00:12:43;;;;;;;3.88;2.20;;;22.30;99.90;;;;;;5038903;28;20104;-79
2022/07/31 00:15:11;;;;;;;2.70;2.50;;;22.40;99.90;;;;;;5030889;28;20025;-80
2022/07/31 00:17:38;;;;;;;3.40;2.22;;;22.40;99.90;;;;;;5036780;28;20569;-81
2022/07/31 00:20:05;;;;;;;3.67;2.33;;;22.40;99.90;;;;;;5034928;28;20056;-80
2022/07/31 00:22:31;;;;;;;3.67;2.40;;;22.40;99.90;;;;;;5043870;28;20123;-80
2022/07/31 00:24:57;;;;;;;3.13;2.20;;;22.30;99.90;;;;;;5032754;28;20104;-80
2022/07/31 00:27:22;;;;;;;3.15;2.20;;;22.30;99.90;;;;;;5034902;28;20026;-80
2022/07/31 00:29:49;;;;;;;2.75;2.30;;;22.30;99.90;;;;;;5048020;28;20087;-80
2022/07/31 00:32:15;;;;;;;2.90;2.47;;;22.30;99.90;;;;;;5046861;28;20055;-80
2022/07/31 00:34:43;;;;;;;3.85;2.00;;;22.30;99.90;;;;;;5034656;28;20053;-79
2022/07/31 00:37:09;;;;;;;2.38;1.92;;;22.20;99.90;;;;;;5034719;28;20116;-80
2022/07/31 00:39:37;;;;;;;5.70;2.40;;;22.20;99.90;;;;;;5034100;28;20049;-79
2022/07/31 00:42:04;;;;;;;2.75;2.40;;;22.20;99.90;;;;;;5037495;28;20079;-80
2022/07/31 00:44:30;;;;;;;2.78;2.30;;;22.20;99.90;;;;;;5034949;28;20382;-80
2022/07/31 00:46:55;;;;;;;3.15;2.53;;;22.20;99.90;;;;;;5035868;28;20024;-80
2022/07/31 00:49:21;;;;;;;2.20;2.00;;;22.20;99.90;;;;;;5044654;28;20102;-80
2022/07/31 00:51:47;;;;;;;4.50;2.20;;;22.20;99.90;;;;;;5046069;28;20024;-80
2022/07/31 00:54:13;;;;;;;2.35;2.25;;;22.10;99.90;;;;;;5043271;28;20033;-80
2022/07/31 00:56:39;;;;;;;2.35;2.15;;;22.10;99.90;;;;;;5043393;28;20111;-80
2022/07/31 00:59:05;;;;;;;2.70;2.50;;;22.10;99.90;;;;;;5042067;28;20107;-80
2022/07/31 01:01:31;;;;;;;2.10;1.90;;;22.10;99.90;;;;;;5047436;28;20025;-79
2022/07/31 01:03:57;;;;;;;2.55;2.20;;;22.10;99.90;;;;;;5040299;28;20369;-80
2022/07/31 01:06:22;;;;;;;2.83;2.35;;;22.10;99.90;;;;;;5034076;28;20037;-79
2022/07/31 01:08:48;;;;;;;2.50;2.30;;;22.10;99.90;;;;;;5041625;28;20045;-80
2022/07/31 01:11:44;;;;;;;2.45;2.25;;;22.10;99.90;;;;;;5047186;28;20053;-79
2022/07/31 01:14:11;;;;;;;5.10;2.40;;;22.10;99.90;;;;;;5037417;28;20037;-80
2022/07/31 01:16:41;;;;;;;2.35;2.15;;;22.10;99.90;;;;;;5035897;28;20029;-80
2022/07/31 01:19:42;;;;;;;3.92;2.30;;;22.00;99.90;;;;;;5033029;28;20394;-79
2022/07/31 01:22:13;;;;;;;4.05;2.30;;;22.00;99.90;;;;;;5047059;28;20037;-80
2022/07/31 01:25:10;;;;;;;2.75;2.55;;;21.90;99.90;;;;;;5034651;28;20101;-80
2022/07/31 01:28:03;;;;;;;2.83;2.22;;;21.90;99.90;;;;;;5037049;28;20032;-80
2022/07/31 01:30:38;;;;;;;;;;;21.90;99.90;;;;;;5011495;28;20038;-80
2022/07/31 01:33:13;;;;;;;3.33;2.35;;;21.80;99.90;;;;;;5036588;28;19908;-79
2022/07/31 01:35:48;;;;;;;3.15;2.40;;;21.80;99.90;;;;;;5049836;28;20024;-79
2022/07/31 01:38:20;;;;;;;5.65;2.58;;;21.80;99.90;;;;;;5040847;28;20053;-80
2022/07/31 01:40:53;;;;;;;2.72;2.25;;;21.70;99.90;;;;;;5048048;28;20052;-78
2022/07/31 01:43:23;;;;;;;3.03;2.50;;;21.70;99.90;;;;;;5041708;28;20036;-80
2022/07/31 01:45:55;;;;;;;3.75;2.55;;;21.70;99.90;;;;;;5051651;28;20025;-79
2022/07/31 01:48:21;;;;;;;4.40;2.75;;;21.60;99.90;;;;;;5040873;28;20037;-78
2022/07/31 01:50:50;;;;;;;3.13;2.55;;;21.60;99.90;;;;;;5052612;28;20028;-79
2022/07/31 01:53:21;;;;;;;3.08;2.47;;;21.60;99.90;;;;;;5040871;28;20415;-79
2022/07/31 01:55:49;;;;;;;4.40;2.65;;;21.50;99.90;;;;;;5048396;28;20083;-78
2022/07/31 01:58:17;;;;;;;2.63;2.42;;;21.50;99.90;;;;;;5043313;28;20022;-79
2022/07/31 02:00:45;;;;;;;3.50;2.50;;;21.50;99.90;;;;;;5032901;28;20052;-79
2022/07/31 02:03:12;;;;;;;2.42;2.22;;;21.50;99.90;;;;;;5047555;28;20025;-79
2022/07/31 02:05:40;;;;;;;2.50;2.30;;;21.40;99.90;;;;;;5033856;28;20096;-80
2022/07/31 02:10:53;;;;;;;3.35;2.33;;;21.40;99.90;;;;;;5034607;28;20588;-79
2022/07/31 02:13:20;;;;;;;3.20;2.70;;;21.40;99.90;;;;;;5042889;28;20029;-79
2022/07/31 02:15:47;;;;;;;2.72;2.35;;;21.40;99.90;;;;;;5052421;28;20033;-78
2022/07/31 02:18:14;;;;;;;2.67;2.30;;;21.30;99.90;;;;;;5042249;28;20025;-80
2022/07/31 02:20:40;;;;;;;7.13;2.40;;;21.30;99.90;;;;;;5052550;28;20036;-79
2022/07/31 02:23:06;;;;;;;5.70;2.38;;;21.30;99.90;;;;;;5038655;28;20092;-78
2022/07/31 02:25:34;;;;;;;5.70;2.60;;;21.30;99.90;;;;;;5033592;28;20411;-80
2022/07/31 02:28:04;;;;;;;2.58;2.35;;;21.30;99.90;;;;;;5040970;28;20027;-80
2022/07/31 02:30:32;;;;;;;3.72;2.35;;;21.30;99.90;;;;;;5053363;28;20060;-80
2022/07/31 02:32:58;;;;;;;3.83;2.60;;;21.30;99.90;;;;;;5044832;28;20025;-79
2022/07/31 02:35:24;;;;;;;3.97;2.50;;;21.30;99.90;;;;;;5033006;28;20083;-80
2022/07/31 02:37:53;;;;;;;4.97;2.47;;;21.30;99.90;;;;;;5037980;28;20221;-80
2022/07/31 02:40:20;;;;;;;8.07;2.70;;;21.30;99.90;;;;;;5053020;28;20082;-80
2022/07/31 02:42:47;;;;;;;3.05;2.58;;;21.20;99.90;;;;;;5049075;28;20547;-80
2022/07/31 02:45:14;;;;;;;2.40;2.20;;;21.20;99.90;;;;;;5033220;28;20025;-79
2022/07/31 02:47:40;;;;;;;3.83;2.38;;;21.20;99.90;;;;;;5037511;28;20041;-80
2022/07/31 02:50:07;;;;;;;6.03;2.78;;;21.10;99.90;;;;;;5052575;28;20167;-80
2022/07/31 02:52:33;;;;;;;2.92;2.30;;;21.10;99.90;;;;;;5040532;28;20037;-80
2022/07/31 02:55:00;;;;;;;3.10;2.28;;;21.10;99.90;;;;;;5050133;28;20025;-79
2022/07/31 02:57:26;;;;;;;2.58;2.38;;;21.10;99.90;;;;;;5038720;28;20100;-80
2022/07/31 02:59:52;;;;;;;3.20;2.47;;;21.10;99.90;;;;;;5050398;28;20115;-79
2022/07/31 03:02:18;;;;;;;1.90;1.80;;;21.10;99.90;;;;;;5049270;28;20488;-79
2022/07/31 03:04:43;;;;;;;3.85;2.45;;;21.00;99.90;;;;;;5034596;28;20120;-78
2022/07/31 03:07:09;;;;;;;9.65;2.40;;;21.00;99.90;;;;;;5038067;28;20025;-80
2022/07/31 03:09:35;;;;;;;3.08;2.20;;;21.00;99.90;;;;;;5032365;28;20026;-80
2022/07/31 03:12:01;;;;;;;3.25;2.58;;;21.00;99.90;;;;;;5036430;28;20029;-80
2022/07/31 03:14:29;;;;;;;4.85;2.60;;;20.90;99.90;;;;;;5045690;28;20029;-79
2022/07/31 03:16:57;;;;;;;3.75;2.40;;;20.90;99.90;;;;;;5045271;28;20025;-79
2022/07/31 03:19:23;;;;;;;4.80;2.53;;;20.90;99.90;;;;;;5046179;28;20479;-77
2022/07/31 03:21:49;;;;;;;13.02;2.65;;;20.90;99.90;;;;;;5046092;28;20037;-83
2022/07/31 03:24:16;;;;;;;6.13;2.28;;;20.80;99.90;;;;;;5045137;28;20028;-79
2022/07/31 03:26:42;;;;;;;2.70;2.50;;;20.80;99.90;;;;;;5043985;28;20057;-77
2022/07/31 03:29:08;;;;;;;3.65;2.25;;;20.80;99.90;;;;;;5043978;28;20084;-81
2022/07/31 03:31:34;;;;;;;2.47;2.25;;;20.80;99.90;;;;;;5043765;28;20049;-82
2022/07/31 03:34:00;;;;;;;4.60;2.72;;;20.80;99.90;;;;;;5039198;28;20025;-81
2022/07/31 03:36:26;;;;;;;2.55;2.35;;;20.80;99.90;;;;;;5035596;28;20063;-80
2022/07/31 03:38:52;;;;;;;4.18;2.45;;;20.90;99.90;;;;;;5043061;28;20091;-78
2022/07/31 03:41:18;;;;;;;3.58;2.47;;;20.80;99.90;;;;;;5048434;28;20415;-78
2022/07/31 03:43:46;;;;;;;4.55;2.58;;;20.90;99.90;;;;;;5043030;28;20121;-78
2022/07/31 03:46:14;;;;;;;4.18;2.70;;;20.90;99.90;;;;;;5049034;28;20443;-77
2022/07/31 03:48:40;;;;;;;2.67;2.38;;;20.90;99.90;;;;;;5042823;28;20021;-77
2022/07/31 03:51:07;;;;;;;3.08;2.63;;;20.90;99.90;;;;;;5048342;28;20148;-77
2022/07/31 03:53:32;;;;;;;2.60;2.40;;;20.90;99.90;;;;;;5036082;28;20104;-77
2022/07/31 03:56:01;;;;;;;3.42;2.53;;;20.90;99.90;;;;;;5032879;28;20104;-78
2022/07/31 03:58:28;;;;;;;5.18;2.50;;;20.90;99.90;;;;;;5041786;28;20033;-77
2022/07/31 04:00:53;;;;;;;2.30;2.15;;;20.90;99.90;;;;;;5048640;28;20388;-77
2022/07/31 04:03:19;;;;;;;2.78;2.50;;;20.80;99.90;;;;;;5044809;28;20034;-77
2022/07/31 04:05:45;;;;;;;4.03;2.40;;;20.80;99.90;;;;;;5030140;28;20032;-79
2022/07/31 04:08:11;;;;;;;3.83;2.22;;;20.90;99.90;;;;;;5039755;28;20033;-78
2022/07/31 04:10:36;;;;;;;2.88;2.67;;;20.90;99.90;;;;;;5051009;28;20083;-79
2022/07/31 04:13:04;;;;;;;3.40;2.50;;;21.00;99.90;;;;;;5036366;28;20167;-79
2022/07/31 04:15:30;;;;;;;2.83;2.40;;;21.00;99.90;;;;;;5051491;28;20025;-79
2022/07/31 04:17:56;;;;;;;2.65;2.42;;;21.00;99.90;;;;;;5039024;28;20117;-79
2022/07/31 04:20:22;;;;;;;2.78;2.45;;;21.10;99.90;;;;;;5049923;28;20111;-78
2022/07/31 04:22:48;;;;;;;2.92;2.70;;;21.10;99.90;;;;;;5038895;28;20026;-79
2022/07/31 04:25:14;;;;;;;2.83;2.50;;;21.10;99.90;;;;;;5050224;28;20111;-79
2022/07/31 04:27:40;;;;;;;3.33;2.75;;;21.10;99.90;;;;;;5036503;28;20030;-81
2022/07/31 04:30:07;;;;;;;2.85;2.63;;;21.10;99.90;;;;;;5050773;28;20036;-79
2022/07/31 04:32:34;;;;;;;3.30;2.50;;;21.10;99.90;;;;;;5040395;28;20028;-80
2022/07/31 04:35:01;;;;;;;3.35;2.40;;;21.20;99.90;;;;;;5032816;28;20024;-80
2022/07/31 04:37:27;;;;;;;2.50;2.30;;;21.20;99.90;;;;;;5036096;28;20045;-79
2022/07/31 04:39:53;;;;;;;5.55;2.65;;;21.20;99.90;;;;;;5048839;28;20268;-78
2022/07/31 04:42:19;;;;;;;2.50;2.28;;;21.20;99.90;;;;;;5040715;28;20032;-78
2022/07/31 04:44:45;;;;;;;5.80;2.33;;;21.30;99.90;;;;;;5047733;28;20017;-79
2022/07/31 04:47:10;;;;;;;2.53;2.33;;;21.30;99.90;;;;;;5043025;28;20069;-79
2022/07/31 04:49:36;;;;;;;2.38;2.22;;;21.40;99.90;;;;;;5046550;28;20032;-79
2022/07/31 04:52:03;;;;;;;3.15;2.42;;;21.40;99.90;;;;;;5043948;28;20037;-79
2022/07/31 04:54:28;;;;;;;2.60;2.38;;;21.40;99.90;;;;;;5045323;28;20057;-78
2022/07/31 04:56:54;;;;;;;4.00;2.70;;;21.50;99.90;;;;;;5041318;28;20502;-79
2022/07/31 04:59:21;;;;;;;2.75;2.25;;;21.50;99.90;;;;;;5044269;28;20214;-78
2022/07/31 05:01:48;;;;;;;2.53;2.33;;;21.50;99.90;;;;;;5047290;28;20025;-79
2022/07/31 05:04:14;;;;;;;5.93;2.45;;;21.60;99.90;;;;;;5038333;28;20075;-79
2022/07/31 05:06:43;;;;;;;2.50;2.30;;;21.60;99.90;;;;;;5035987;28;20032;-78
2022/07/31 05:09:14;;;;;;;3.50;2.38;;;21.60;99.90;;;;;;5042436;28;20041;-81
2022/07/31 05:11:41;;;;;;;2.67;2.08;;;21.60;99.90;;;;;;5046979;28;20029;-80
2022/07/31 05:14:09;;;;;;;3.70;2.50;;;21.70;99.90;;;;;;5042391;28;20027;-82
2022/07/31 05:16:35;;;;;;;2.63;2.40;;;21.80;99.90;;;;;;5048881;28;20032;-82
2022/07/31 05:19:02;;;;;;;2.40;2.08;;;21.80;99.90;;;;;;5045978;28;20055;-83
2022/07/31 05:21:31;;;;;;;2.67;2.40;;;21.90;99.90;;;;;;5049972;28;20468;-80
2022/07/31 05:23:58;;;;;;;2.75;2.47;;;21.90;99.90;;;;;;5045709;28;20040;-79
2022/07/31 05:26:24;;;;;;;3.45;2.65;;;22.00;99.90;;;;;;5047540;28;20026;-79
2022/07/31 05:28:52;;;;;;;2.72;2.15;;;22.00;99.90;;;;;;5045410;28;20057;-79
2022/07/31 05:31:19;;;;;;;3.05;2.25;;;22.00;99.90;;;;;;5050736;28;20108;-79
2022/07/31 05:33:46;;;;;;;6.25;2.58;;;22.10;99.90;;;;;;5045836;28;20032;-79
2022/07/31 05:36:13;;;;;;;2.20;2.00;;;22.20;99.90;;;;;;5034800;28;20484;-80
2022/07/31 05:38:38;;;;;;;2.97;2.10;;;22.20;99.90;;;;;;5045113;28;20545;-80
2022/07/31 05:41:04;;;;;;;5.68;2.38;;;22.20;99.90;;;;;;5050046;28;20028;-80
2022/07/31 05:43:30;;;;;;;1.98;1.83;;;22.30;99.90;;;;;;5043753;28;20025;-80
2022/07/31 05:45:56;;;;;;;2.33;2.08;;;22.30;99.90;;;;;;5052028;28;20040;-79
2022/07/31 05:48:22;;;;;;;2.60;2.40;;;22.40;99.90;;;;;;5042362;28;20025;-79
2022/07/31 05:50:50;;;;;;;3.17;2.10;;;22.40;99.90;;;;;;5053093;28;20036;-84
2022/07/31 05:53:16;;;;;;;3.08;2.30;;;22.50;99.90;;;;;;5042868;28;20043;-81
2022/07/31 05:55:47;;;;;;;4.05;2.28;;;22.50;99.90;;;;;;5049392;28;20029;-79
2022/07/31 05:58:14;;;;;;;3.25;2.42;;;22.60;99.90;;;;;;5044730;28;20060;-79
2022/07/31 06:00:40;;;;;;;2.88;2.03;;;22.60;99.90;;;;;;5034531;28;20029;-88
2022/07/31 06:03:06;;;;;;;2.92;2.13;;;22.70;99.90;;;;;;5044954;28;20026;-78
2022/07/31 06:05:32;;;;;;;4.47;2.30;;;22.80;99.90;;;;;;5032749;28;20114;-82
2022/07/31 06:07:59;;;;;;;4.63;2.53;;;22.90;99.90;;;;;;5041393;28;20112;-82
2022/07/31 06:10:26;;;;;;;3.60;2.55;;;22.90;99.90;;;;;;5052534;28;20041;-81
2022/07/31 06:12:52;;;;;;;4.38;2.40;;;23.00;99.90;;;;;;5039941;28;20263;-76
2022/07/31 06:15:18;;;;;;;2.50;2.30;;;23.00;99.90;;;;;;5052510;28;20025;-80
2022/07/31 06:17:44;;;;;;;4.13;2.35;;;23.10;99.90;;;;;;5041288;28;20032;-80
2022/07/31 06:20:10;;;;;;;2.55;2.20;;;23.10;99.90;;;;;;5054372;28;20115;-83
2022/07/31 06:22:38;;;;;;;3.03;2.50;;;23.20;99.90;;;;;;5041065;28;20029;-79
2022/07/31 06:25:05;;;;;;;2.47;2.28;;;23.30;99.90;;;;;;5052871;28;20025;-79
2022/07/31 06:27:31;;;;;;;2.40;2.20;;;23.30;99.90;;;;;;5041298;28;20025;-80
2022/07/31 06:29:57;;;;;;;2.88;2.10;;;23.30;99.90;;;;;;5034791;28;20033;-81
2022/07/31 06:32:23;;;;;;;8.40;2.38;;;23.40;99.90;;;;;;5037632;28;20438;-83
2022/07/31 06:34:49;;;;;;;2.58;2.38;;;23.50;99.90;;;;;;5049476;28;20020;-79
2022/07/31 06:37:15;;;;;;;4.18;2.20;;;23.50;99.90;;;;;;5044650;28;20026;-80
2022/07/31 06:39:40;;;;;;;3.22;2.35;;;23.60;99.90;;;;;;5049431;28;20566;-81
2022/07/31 06:42:06;;;;;;;4.43;2.40;;;23.70;99.90;;;;;;5045739;28;20022;-80
2022/07/31 06:44:33;;;;;;;2.83;2.10;;;23.80;99.90;;;;;;5038375;28;20098;-79
2022/07/31 06:46:59;;;;;;;3.30;2.10;;;23.80;99.90;;;;;;5037088;28;20052;-80
2022/07/31 06:49:25;;;;;;;6.15;2.58;;;23.90;99.90;;;;;;5046938;28;20199;-80
2022/07/31 06:51:51;;;;;;;2.20;2.00;;;23.90;99.90;;;;;;5046439;28;20025;-80
2022/07/31 06:54:17;;;;;;;3.45;2.20;;;24.00;99.90;;;;;;5046012;28;20119;-80
2022/07/31 06:56:43;;;;;;;4.57;2.00;;;24.10;99.90;;;;;;5044775;28;20486;-81
2022/07/31 06:59:09;;;;;;;4.18;2.20;;;24.20;99.90;;;;;;5044684;28;20032;-82
2022/07/31 07:01:35;;;;;;;2.03;1.83;;;24.20;99.90;;;;;;5048228;28;20017;-81
2022/07/31 07:04:01;;;;;;;2.38;2.05;;;24.30;99.90;;;;;;5040206;28;20033;-80
2022/07/31 07:06:27;;;;;;;2.00;1.80;;;24.40;99.90;;;;;;5035250;28;20025;-80
2022/07/31 07:08:53;;;;;;;2.75;2.03;;;24.40;99.90;;;;;;5042515;28;20419;-80
2022/07/31 07:11:19;;;;;;;3.58;2.55;;;24.50;99.90;;;;;;5049117;28;20056;-80
2022/07/31 07:13:45;;;;;;;2.20;1.90;;;24.60;99.90;;;;;;5043513;28;20091;-80
2022/07/31 07:16:11;;;;;;;2.72;2.38;;;24.60;99.90;;;;;;5047789;28;20041;-80
2022/07/31 07:18:37;;;;;;;4.90;2.17;;;24.70;99.90;;;;;;5041988;28;20028;-80
2022/07/31 07:21:03;;;;;;;2.30;2.10;;;24.80;99.90;;;;;;5048355;28;20032;-80
2022/07/31 07:23:29;;;;;;;3.05;2.10;;;24.90;99.90;;;;;;5043117;28;20017;-81
2022/07/31 07:25:55;;;;;;;2.20;2.00;;;25.00;99.90;;;;;;5045281;28;20062;-80
2022/07/31 07:28:21;;;;;;;4.38;1.98;;;25.20;99.90;;;;;;5041765;28;20085;-81
2022/07/31 07:30:47;;;;;;;2.75;2.00;;;25.40;99.90;;;;;;5051115;28;20033;-81
2022/07/31 07:33:12;;;;;;;2.65;2.03;;;25.40;99.90;;;;;;5044858;28;20025;-81
2022/07/31 07:35:38;;;;;;;4.00;2.28;;;25.50;99.90;;;;;;5032104;28;20124;-81
2022/07/31 07:38:04;;;;;;;3.05;1.95;;;25.60;99.90;;;;;;5039918;28;20407;-80
2022/07/31 07:40:30;;;;;;;2.42;2.22;;;25.70;99.90;;;;;;5050906;28;20101;-80
2022/07/31 07:42:57;;;;;;;3.58;2.20;;;25.80;99.90;;;;;;5042174;28;20033;-80
2022/07/31 07:45:24;;;;;;;3.03;2.03;;;25.80;99.90;;;;;;5032002;28;20017;-81
2022/07/31 07:47:50;;;;;;;2.15;1.98;;;25.90;99.90;;;;;;5038093;28;20171;-80
2022/07/31 07:50:16;;;;;;;3.72;1.98;;;25.90;99.90;;;;;;5051843;28;20037;-80
2022/07/31 07:52:42;;;;;;;2.08;1.90;;;26.00;99.90;;;;;;5039729;28;20030;-81
2022/07/31 07:55:08;;;;;;;2.67;1.73;;;26.10;99.90;;;;;;5051466;28;20087;-81
2022/07/31 07:57:35;;;;;;;4.05;2.15;;;26.20;99.90;;;;;;5037748;28;20028;-80
2022/07/31 08:00:04;;;;;;;3.03;1.95;;;26.20;99.90;;;;;;5031582;28;20071;-81
2022/07/31 08:02:30;;;;;;;3.80;1.92;;;26.30;99.90;;;;;;5042660;28;20506;-80
2022/07/31 08:04:56;;;;;;;2.28;1.70;;;26.40;99.90;;;;;;5033149;28;20018;-80
2022/07/31 08:07:33;;;;;;;2.05;1.83;;;26.40;99.90;;;;;;5037158;28;20187;-80
2022/07/31 08:09:59;;;;;;;2.95;1.67;;;26.50;99.90;;;;;;5032381;28;20037;-80
2022/07/31 08:12:26;;;;;;;2.00;1.80;;;26.50;99.90;;;;;;5036672;28;20025;-81
2022/07/31 08:14:52;;;;;;;4.55;1.98;;;26.50;99.90;;;;;;5049241;28;20483;-81
2022/07/31 08:17:18;;;;;;;4.03;1.88;;;26.60;99.90;;;;;;5041136;28;20030;-80
2022/07/31 08:19:43;;;;;;;3.90;1.92;;;26.60;99.90;;;;;;5047951;28;20128;-81
2022/07/31 08:22:10;;;;;;;1.85;1.67;;;26.60;99.90;;;;;;5043596;28;20451;-80
2022/07/31 08:24:36;;;;;;;2.55;1.98;;;26.70;99.90;;;;;;5030316;28;20029;-81
2022/07/31 08:29:46;;;;;;;2.05;1.60;;;26.80;99.90;;;;;;5048230;28;20147;-80
2022/07/31 08:32:12;;;;;;;2.60;1.77;;;26.80;99.90;;;;;;5037112;28;20527;-80
2022/07/31 08:34:38;;;;;;;1.80;1.70;;;26.90;99.90;;;;;;5046926;28;20035;-80
2022/07/31 08:37:05;;;;;;;1.85;1.70;;;26.90;99.90;;;;;;5044150;28;20021;-79
2022/07/31 08:39:32;;;;;;;6.60;2.15;;;26.90;99.90;;;;;;5045880;28;20090;-80
2022/07/31 08:41:58;;;;;;;2.60;2.22;;;26.90;99.90;;;;;;5043534;28;20083;-80
2022/07/31 08:44:24;;;;;;;2.30;2.10;;;26.90;99.90;;;;;;5044932;28;20021;-82
2022/07/31 08:46:54;;;;;;;2.90;2.17;;;26.90;99.90;;;;;;5044628;28;20081;-81
2022/07/31 08:49:26;;;;;;;2.53;1.90;;;26.80;99.90;;;;;;5036297;28;20044;-80
2022/07/31 08:51:54;;;;;;;3.20;1.83;;;26.80;99.90;;;;;;5036227;28;20032;-81
2022/07/31 08:54:21;;;;;;;2.08;1.77;;;26.80;99.90;;;;;;5043721;28;20028;-82
2022/07/31 08:56:51;;;;;;;3.25;1.90;;;26.90;99.90;;;;;;5041066;28;20025;-81
2022/07/31 08:59:17;;;;;;;5.80;2.00;;;27.00;99.90;;;;;;5043720;28;20027;-81
2022/07/31 09:01:43;;;;;;;3.60;2.03;;;27.00;99.90;;;;;;5047505;28;20027;-81
2022/07/31 09:04:09;;;;;;;6.05;2.20;;;27.00;99.90;;;;;;5038895;28;20502;-81
2022/07/31 09:06:36;;;;;;;3.38;1.88;;;27.10;99.90;;;;;;5034329;28;20021;-80
2022/07/31 09:09:02;;;;;;;1.75;1.48;;;27.10;99.90;;;;;;5040503;28;20410;-80
2022/07/31 09:11:28;;;;;;;3.03;1.85;;;27.20;99.90;;;;;;5047235;28;20422;-83
2022/07/31 09:14:00;;;;;;;3.30;1.77;;;27.20;99.90;;;;;;5040471;28;20107;-81
2022/07/31 09:16:26;;;;;;;4.10;1.70;;;27.20;99.90;;;;;;5045978;28;20033;-79
2022/07/31 09:18:59;;;;;;;3.00;1.73;;;27.20;99.90;;;;;;5041358;28;20022;-81
2022/07/31 09:21:25;;;;;;;1.55;1.45;;;27.20;99.90;;;;;;5034287;28;20119;-82
2022/07/31 09:23:53;;;;;;;1.92;1.63;;;27.20;99.90;;;;;;5040751;28;20032;-81
2022/07/31 09:26:19;;;;;;;1.60;1.50;;;27.30;99.90;;;;;;5043279;28;20116;-83
2022/07/31 09:28:48;;;;;;;2.83;1.67;;;27.20;99.90;;;;;;5041885;28;20618;-82
2022/07/31 09:31:14;;;;;;;2.10;1.90;;;27.20;99.90;;;;;;5031053;28;20030;-81
2022/07/31 09:33:44;;;;;;;1.98;1.38;;;27.20;99.90;;;;;;5050688;28;20021;-81
2022/07/31 09:36:10;;;;;;;6.38;1.50;;;27.20;99.90;;;;;;5045193;28;20025;-81
2022/07/31 09:38:38;;;;;;;2.10;1.48;;;27.30;99.90;;;;;;5041414;28;20084;-82
2022/07/31 09:41:15;;;;;;;1.13;1.13;;;27.30;99.90;;;;;;5047668;28;20029;-80
2022/07/31 09:43:41;;;;;;;1.98;1.63;;;27.30;99.90;;;;;;5035960;28;20547;-80
2022/07/31 09:46:08;;;;;;;1.52;1.42;;;27.20;99.90;;;;;;5031433;28;20029;-80
2022/07/31 09:48:36;;;;;;;1.60;1.50;;;27.30;99.90;;;;;;5040475;28;20032;-80
2022/07/31 09:51:06;;;;;;;1.90;1.60;;;27.30;99.90;;;;;;5047598;28;20057;-80
2022/07/31 09:53:49;;;;;;;1.35;1.20;;;27.40;99.90;;;;;;5023958;28;20083;-79
2022/07/31 09:56:15;;;;;;;1.88;1.77;;;27.30;99.90;;;;;;5043041;28;20100;-81
2022/07/31 09:58:41;;;;;;;2.47;1.40;;;27.40;99.90;;;;;;5041391;28;20041;-80
2022/07/31 10:01:12;;;;;;;1.92;1.40;;;27.40;99.90;;;;;;5046843;28;20356;-81
2022/07/31 10:03:39;;;;;;;2.70;1.50;;;27.40;99.40;;;;;;5044021;28;20492;-81
2022/07/31 10:06:07;;;;;;;1.60;1.20;;;27.40;99.90;;;;;;5034789;28;20017;-80
2022/07/31 10:08:36;;;;;;;2.08;1.20;;;27.50;98.70;;;;;;5036783;28;20025;-80
2022/07/31 10:11:04;;;;;;;1.60;1.48;;;27.50;99.40;;;;;;5034709;28;20057;-81
2022/07/31 10:13:34;;;;;;;1.38;1.27;;;27.50;99.00;;;;;;5044333;28;20086;-80
2022/07/31 10:16:01;;;;;;;8.05;1.35;;;27.60;98.90;;;;;;5051644;28;20021;-81
2022/07/31 10:18:29;;;;;;;2.20;1.25;;;27.50;99.70;;;;;;5042984;28;20045;-81
2022/07/31 10:20:56;;;;;;;0.80;0.80;;;27.50;97.10;;;;;;5033473;28;20036;-80
2022/07/31 10:23:26;;;;;;;1.23;1.10;;;27.40;96.80;;;;;;5041320;28;20044;-80
2022/07/31 10:25:56;;;;;;;3.17;1.20;;;27.50;96.60;;;;;;5046514;28;20033;-79
2022/07/31 10:28:23;;;;;;;1.52;1.40;;;27.60;98.30;;;;;;5043454;28;20026;-80
2022/07/31 10:30:49;;;;;;;2.05;1.70;;;27.60;99.10;;;;;;5034220;28;20029;-80
2022/07/31 10:33:16;;;;;;;1.30;1.20;;;27.60;99.90;;;;;;5046518;28;20049;-80
2022/07/31 10:35:51;;;;;;;1.55;1.30;;;27.70;99.90;;;;;;5032012;28;20067;-80
2022/07/31 10:38:23;;;;;;;1.35;1.25;;;27.80;99.90;;;;;;5038771;28;20049;-81
2022/07/31 10:41:02;;;;;;;1.58;1.48;;;27.60;97.20;;;;;;5051961;28;20471;-80
2022/07/31 10:43:38;;;;;;;1.88;1.30;;;27.60;98.70;;;;;;5041980;28;20025;-80
2022/07/31 10:46:03;;;;;;;1.75;1.50;;;27.70;98.70;;;;;;5050586;28;20029;-80
2022/07/31 10:48:29;;;;;;;2.15;1.65;;;27.70;99.90;;;;;;5042218;28;20048;-81
2022/07/31 10:51:08;;;;;;;1.50;1.40;;;27.80;97.90;;;;;;5033409;28;20397;-82
2022/07/31 10:53:35;;;;;;;1.40;1.30;;;27.90;98.60;;;;;;5037610;28;20018;-80
2022/07/31 10:56:09;;;;;;;1.92;1.35;;;27.90;96.70;;;;;;5034086;28;20036;-81
2022/07/31 10:58:49;;;;;;;1.67;1.33;;;27.90;99.50;;;;;;5036337;28;20120;-81
2022/07/31 11:01:14;;;;;;;1.65;1.40;;;28.00;96.80;;;;;;5034774;28;20188;-82
2022/07/31 11:03:53;;;;;;;1.20;1.10;;;27.90;99.10;;;;;;5052683;28;20535;-79
2022/07/31 11:06:20;;;;;;;4.43;1.58;;;28.10;98.40;;;;;;5047976;28;20052;-82
2022/07/31 11:08:54;;;;;;;2.05;1.40;;;28.10;98.50;;;;;;5043522;28;20025;-81
2022/07/31 11:11:35;;;;;;;5.45;1.73;;;28.10;98.00;;;;;;5048420;28;20506;-81
2022/07/31 11:14:01;;;;;;;1.52;1.42;;;28.10;98.10;;;;;;5041112;28;20022;-80
2022/07/31 11:16:28;;;;;;;1.52;1.27;;;28.10;97.90;;;;;;5035143;28;20032;-82
2022/07/31 11:18:58;;;;;;;1.70;1.58;;;28.10;97.30;;;;;;5043410;28;20029;-81
2022/07/31 11:21:31;;;;;;;1.42;1.33;;;28.10;96.20;;;;;;5048943;28;20029;-82
2022/07/31 11:23:57;;;;;;;1.98;1.50;;;28.20;97.50;;;;;;5042033;28;20056;-81
2022/07/31 11:26:23;;;;;;;1.83;1.67;;;28.30;98.40;;;;;;5044322;28;20333;-81
2022/07/31 11:28:49;;;;;;;1.52;1.42;;;28.20;99.80;;;;;;5040974;28;20033;-81
2022/07/31 11:31:14;;;;;;;3.10;1.67;;;28.20;99.90;;;;;;5034289;28;20037;-80
2022/07/31 11:33:45;;;;;;;4.13;1.42;;;28.20;99.90;;;;;;5041586;28;20032;-81
2022/07/31 11:36:25;;;;;;;1.45;1.35;;;28.20;99.90;;;;;;5033502;28;20121;-80
2022/07/31 11:38:55;;;;;;;3.10;2.00;;;28.40;99.90;;;;;;5041874;28;20045;-80
2022/07/31 11:41:25;;;;;;;2.85;1.75;;;28.50;99.90;;;;;;5047416;28;20021;-80
2022/07/31 11:43:53;;;;;;;2.00;1.80;;;28.70;99.90;;;;;;5041637;28;20029;-79
2022/07/31 11:46:24;;;;;;;1.45;1.27;;;28.90;99.90;;;;;;5048400;28;20013;-80
2022/07/31 11:48:50;;;;;;;1.60;1.50;;;28.90;97.60;;;;;;5033731;28;20369;-81
2022/07/31 11:51:18;;;;;;;3.72;1.85;;;28.80;99.30;;;;;;5032679;28;20099;-82
2022/07/31 11:53:44;;;;;;;2.42;1.70;;;28.60;99.90;;;;;;5043022;28;20051;-83
2022/07/31 11:56:10;;;;;;;1.95;1.65;;;28.60;99.90;;;;;;5044305;28;20044;-80
2022/07/31 11:58:37;;;;;;;3.45;1.90;;;28.40;99.90;;;;;;5042620;28;20017;-80
2022/07/31 12:01:04;;;;;;;2.15;1.60;;;28.20;99.90;;;;;;5048957;28;20035;-79
2022/07/31 12:03:35;;;;;;;2.53;1.40;;;28.00;99.90;;;;;;5044672;28;20482;-81
2022/07/31 12:06:01;;;;;;;3.85;1.83;;;27.90;99.90;;;;;;5031348;28;20061;-81
2022/07/31 12:08:28;;;;;;;4.40;1.80;;;27.90;99.90;;;;;;5041826;28;20036;-81
2022/07/31 12:10:55;;;;;;;1.65;1.55;;;28.00;99.90;;;;;;5049915;28;20025;-80
2022/07/31 12:13:23;;;;;;;2.35;1.80;;;28.60;99.90;;;;;;5039606;28;20487;-81
2022/07/31 12:16:05;;;;;;;1.83;1.63;;;29.70;99.90;;;;;;5048789;28;20028;-80
2022/07/31 12:18:52;;;;;;;;;;;30.90;98.50;;;;;;5042456;28;20279;-80
2022/07/31 12:21:19;;;;;;;1.60;1.50;;;32.00;96.90;;;;;;5037211;28;20213;-80
2022/07/31 12:23:47;;;;;;;1.55;1.45;;;33.00;95.40;;;;;;5032622;28;20033;-80
2022/07/31 12:26:24;;;;;;;3.45;1.67;;;33.40;96.50;;;;;;5032724;28;20506;-80
2022/07/31 12:29:01;;;;;;;2.83;1.50;;;33.80;96.10;;;;;;5040891;28;20032;-82
2022/07/31 12:31:28;;;;;;;3.88;1.80;;;34.40;95.00;;;;;;5046348;28;20400;-81
2022/07/31 12:33:54;;;;;;;2.65;1.58;;;34.80;95.40;;;;;;5040119;28;20108;-81
2022/07/31 12:36:20;;;;;;;2.40;1.80;;;35.30;94.10;;;;;;5033720;28;20112;-81
2022/07/31 12:39:00;;;;;;;2.88;1.40;;;35.60;93.70;;;;;;5042123;28;20045;-81
2022/07/31 12:41:27;;;;;;;2.38;1.60;;;35.20;94.30;;;;;;5045502;28;20029;-83
2022/07/31 12:43:53;;;;;;;1.95;1.40;;;35.40;94.00;;;;;;5041813;28;20029;-81
2022/07/31 12:46:37;;;;;;;2.90;1.40;;;36.00;92.80;;;;;;5047559;28;20025;-83
2022/07/31 12:49:04;;;;;;;1.95;1.30;;;36.80;92.70;;;;;;5041862;28;20033;-81
2022/07/31 12:51:34;;;;;;;1.48;1.30;;;37.10;91.20;;;;;;5047385;28;20487;-81
2022/07/31 12:54:02;;;;;;;1.88;1.70;;;35.60;93.20;;;;;;5041863;28;20025;-81
2022/07/31 12:56:28;;;;;;;10.70;8.15;;;33.70;95.40;;;;;;5043803;28;20526;-79